createdAt,value
2022-12-01T00:00:29.167Z,1.94
2022-12-01T00:03:13.167Z,1.89
2022-12-01T00:06:02.432Z,1.88
2022-12-01T00:09:07.748Z,1.82
2022-12-01T00:11:51.209Z,1.75
2022-12-01T00:14:34.767Z,1.57
2022-12-01T00:17:18.308Z,1.58
2022-12-01T00:20:02.016Z,1.46
2022-12-01T00:22:47.807Z,1.45
2022-12-01T00:25:32.247Z,1.73
2022-12-01T00:28:15.744Z,1.69
2022-12-01T00:31:00.195Z,1.62
2022-12-01T00:33:43.700Z,1.69
2022-12-01T00:36:27.964Z,1.60
2022-12-01T00:39:11.442Z,1.66
2022-12-01T00:41:54.934Z,1.72
2022-12-01T00:44:38.438Z,1.61
2022-12-01T00:47:21.987Z,1.82
2022-12-01T00:50:05.979Z,1.89
2022-12-01T00:52:49.420Z,1.87
2022-12-01T00:55:33.000Z,2.00
2022-12-01T00:58:16.491Z,2.13
2022-12-01T01:01:02.138Z,1.67
2022-12-01T01:03:45.770Z,1.69
2022-12-01T01:06:29.687Z,1.60
2022-12-01T01:09:14.859Z,1.52
2022-12-01T01:11:58.305Z,1.48
2022-12-01T01:14:41.751Z,1.48
2022-12-01T01:17:25.278Z,1.66
2022-12-01T01:20:09.672Z,1.65
2022-12-01T01:22:53.100Z,1.70
2022-12-01T01:25:36.553Z,1.55
2022-12-01T01:28:20.688Z,1.59
2022-12-01T01:31:13.828Z,1.57
2022-12-01T01:33:58.088Z,1.47
2022-12-01T01:36:41.544Z,1.52
2022-12-01T01:39:25.023Z,1.68
2022-12-01T01:42:14.313Z,1.47
2022-12-01T01:44:59.398Z,1.50
2022-12-01T01:47:43.027Z,1.42
2022-12-01T01:50:29.085Z,1.63
2022-12-01T01:53:15.798Z,1.68
2022-12-01T01:56:01.791Z,1.48
2022-12-01T01:58:45.689Z,1.78
2022-12-01T02:01:29.911Z,1.64
2022-12-01T02:04:15.483Z,1.65
2022-12-01T02:06:59.319Z,1.39
2022-12-01T02:09:42.754Z,1.23
2022-12-01T02:13:16.021Z,1.28
2022-12-01T02:16:50.634Z,1.42
2022-12-01T02:20:12.973Z,1.69
2022-12-01T02:23:33.811Z,1.56
2022-12-01T02:26:47.846Z,1.38
2022-12-01T02:29:56.017Z,1.63
2022-12-01T02:32:47.847Z,1.59
2022-12-01T02:35:51.935Z,1.46
2022-12-01T02:38:50.933Z,1.05
2022-12-01T02:41:51.081Z,1.30
2022-12-01T02:44:43.643Z,1.31
2022-12-01T02:47:27.669Z,1.47
2022-12-01T02:50:13.523Z,1.32
2022-12-01T02:52:58.255Z,1.27
2022-12-01T02:55:51.439Z,1.27
2022-12-01T02:58:34.980Z,1.45
2022-12-01T03:01:59.114Z,1.45
2022-12-01T03:05:09.524Z,1.24
2022-12-01T03:08:27.065Z,1.37
2022-12-01T03:11:26.969Z,1.33
2022-12-01T03:14:42.497Z,1.63
2022-12-01T03:17:59.049Z,1.72
2022-12-01T03:20:56.567Z,1.74
2022-12-01T03:23:48.489Z,1.45
2022-12-01T03:26:36.268Z,1.38
2022-12-01T03:29:43.670Z,1.10
2022-12-01T03:32:41.738Z,1.34
2022-12-01T03:35:49.277Z,1.26
2022-12-01T03:38:36.548Z,1.27
2022-12-01T03:41:28.037Z,1.28
2022-12-01T03:44:25.686Z,1.29
2022-12-01T03:47:20.882Z,1.35
2022-12-01T03:50:10.303Z,1.35
2022-12-01T03:53:23.707Z,1.41
2022-12-01T03:56:09.058Z,1.24
2022-12-01T03:58:58.185Z,1.25
2022-12-01T04:01:41.942Z,1.10
2022-12-01T04:04:25.438Z,1.30
2022-12-01T04:07:13.455Z,1.13
2022-12-01T04:09:57.422Z,1.19
2022-12-01T04:12:40.938Z,1.14
2022-12-01T04:15:26.179Z,1.20
2022-12-01T04:18:09.667Z,1.23
2022-12-01T04:20:53.212Z,1.18
2022-12-01T04:23:55.067Z,1.37
2022-12-01T04:26:38.813Z,1.41
2022-12-01T04:29:22.301Z,1.56
2022-12-01T04:32:06.151Z,1.36
2022-12-01T04:34:49.652Z,1.38
2022-12-01T04:37:33.688Z,1.44
2022-12-01T04:40:18.955Z,1.31
2022-12-01T04:43:02.475Z,1.22
2022-12-01T04:45:46.374Z,1.17
2022-12-01T04:48:29.896Z,1.30
2022-12-01T04:51:13.501Z,1.19
2022-12-01T04:53:57.057Z,1.13
2022-12-01T04:56:40.755Z,1.35
2022-12-01T04:59:24.313Z,1.25
2022-12-01T05:02:08.065Z,1.32
2022-12-01T05:04:51.586Z,1.11
2022-12-01T05:07:35.120Z,1.11
2022-12-01T05:10:19.183Z,1.06
2022-12-01T05:13:05.223Z,1.07
2022-12-01T05:15:49.301Z,0.86
2022-12-01T05:18:33.370Z,0.90
2022-12-01T05:21:18.228Z,0.83
2022-12-01T05:24:01.730Z,1.02
2022-12-01T05:26:45.977Z,0.95
2022-12-01T05:29:29.477Z,1.24
2022-12-01T05:32:13.309Z,1.19
2022-12-01T05:34:56.782Z,1.16
2022-12-01T05:37:40.269Z,1.27
2022-12-01T05:40:23.699Z,1.12
2022-12-01T05:43:07.303Z,1.02
2022-12-01T05:45:50.886Z,1.28
2022-12-01T05:48:34.519Z,1.13
2022-12-01T05:51:19.058Z,1.34
2022-12-01T05:54:02.735Z,1.28
2022-12-01T05:56:46.165Z,1.19
2022-12-01T05:59:29.591Z,1.19
2022-12-01T06:02:13.150Z,1.10
2022-12-01T06:04:56.791Z,1.21
2022-12-01T06:07:40.537Z,1.19
2022-12-01T06:10:24.199Z,0.91
2022-12-01T06:13:07.619Z,1.01
2022-12-01T06:16:03.151Z,1.09
2022-12-01T06:18:46.615Z,1.04
2022-12-01T06:21:30.101Z,0.98
2022-12-01T06:24:13.513Z,0.94
2022-12-01T06:26:57.254Z,1.13
2022-12-01T06:29:42.385Z,0.84
2022-12-01T06:32:25.966Z,0.82
2022-12-01T06:35:09.679Z,0.73
2022-12-01T06:37:54.552Z,0.96
2022-12-01T06:40:38.008Z,1.15
2022-12-01T06:43:21.499Z,0.94
2022-12-01T06:46:05.788Z,1.04
2022-12-01T06:48:49.294Z,1.22
2022-12-01T06:51:34.361Z,1.05
2022-12-01T06:54:18.116Z,1.21
2022-12-01T06:57:01.664Z,1.08
2022-12-01T06:59:45.343Z,0.99
2022-12-01T07:02:29.047Z,1.20
2022-12-01T07:05:12.567Z,1.22
2022-12-01T07:07:59.430Z,1.21
2022-12-01T07:10:43.423Z,1.09
2022-12-01T07:13:32.807Z,1.15
2022-12-01T07:16:17.116Z,1.13
2022-12-01T07:19:00.536Z,1.13
2022-12-01T07:21:43.997Z,0.93
2022-12-01T07:24:27.414Z,0.93
2022-12-01T07:27:10.847Z,0.97
2022-12-01T07:29:54.332Z,1.08
2022-12-01T07:32:37.755Z,0.83
2022-12-01T07:35:21.908Z,0.68
2022-12-01T07:38:05.471Z,0.92
2022-12-01T07:40:49.112Z,1.06
2022-12-01T07:43:33.502Z,1.15
2022-12-01T07:46:27.138Z,1.40
2022-12-01T07:49:14.816Z,1.32
2022-12-01T07:51:58.232Z,1.42
2022-12-01T07:54:41.700Z,1.37
2022-12-01T07:57:27.942Z,1.35
2022-12-01T08:00:12.291Z,1.38
2022-12-01T08:02:55.971Z,1.43
2022-12-01T08:05:39.555Z,1.37
2022-12-01T08:08:23.182Z,1.20
2022-12-01T08:11:13.578Z,1.26
2022-12-01T08:13:57.322Z,1.07
2022-12-01T08:16:40.931Z,1.31
2022-12-01T08:19:25.910Z,1.37
2022-12-01T08:22:09.408Z,1.51
2022-12-01T08:24:52.914Z,1.26
2022-12-01T08:27:36.467Z,1.53
2022-12-01T08:30:20.195Z,1.49
2022-12-01T08:33:03.675Z,1.37
2022-12-01T08:35:47.129Z,1.35
2022-12-01T08:38:30.902Z,1.42
2022-12-01T08:41:15.258Z,1.39
2022-12-01T08:44:00.106Z,1.70
2022-12-01T08:46:44.333Z,1.77
2022-12-01T08:49:27.932Z,1.77
2022-12-01T08:52:11.394Z,1.50
2022-12-01T08:54:56.797Z,1.35
2022-12-01T08:57:40.494Z,1.47
2022-12-01T09:00:24.001Z,1.66
2022-12-01T09:03:07.457Z,1.58
2022-12-01T09:05:50.972Z,1.90
2022-12-01T09:08:35.923Z,1.67
2022-12-01T09:11:19.563Z,1.71
2022-12-01T09:14:03.366Z,1.35
2022-12-01T09:16:49.989Z,1.32
2022-12-01T09:19:34.200Z,1.55
2022-12-01T09:22:17.797Z,1.53
2022-12-01T09:25:02.463Z,1.45
2022-12-01T09:27:46.552Z,1.53
2022-12-01T09:30:30.042Z,1.57
2022-12-01T09:33:13.752Z,1.58
2022-12-01T09:36:02.086Z,1.67
2022-12-01T09:42:38.688Z,1.81
2022-12-01T09:45:36.795Z,1.58
2022-12-01T09:48:45.073Z,1.48
2022-12-01T09:51:30.027Z,1.66
2022-12-01T09:54:15.102Z,1.62
2022-12-01T10:00:44.014Z,1.69
2022-12-01T10:03:46.497Z,1.74
2022-12-01T10:06:42.620Z,1.67
2022-12-01T10:09:59.676Z,1.69
2022-12-01T10:12:47.015Z,1.58
2022-12-01T10:16:00.003Z,1.54
2022-12-01T10:19:35.526Z,1.64
2022-12-01T10:22:53.008Z,1.74
2022-12-01T10:26:14.759Z,1.58
2022-12-01T10:29:11.277Z,1.77
2022-12-01T10:32:03.217Z,1.80
2022-12-01T10:34:48.432Z,1.74
2022-12-01T10:37:32.368Z,1.77
2022-12-01T10:40:17.240Z,2.05
2022-12-01T10:43:02.203Z,1.80
2022-12-01T10:45:46.071Z,1.82
2022-12-01T10:48:29.618Z,1.62
2022-12-01T10:51:19.502Z,1.69
2022-12-01T10:54:11.733Z,1.68
2022-12-01T10:56:57.446Z,1.99
2022-12-01T11:00:05.860Z,2.14
2022-12-01T11:02:49.942Z,1.70
2022-12-01T11:05:42.200Z,1.94
2022-12-01T11:08:59.866Z,2.26
2022-12-01T11:11:43.512Z,2.06
2022-12-01T11:14:51.946Z,2.06
2022-12-01T11:17:41.511Z,2.08
2022-12-01T11:20:36.471Z,1.88
2022-12-01T11:23:21.032Z,1.81
2022-12-01T11:26:24.874Z,1.59
2022-12-01T11:29:32.470Z,2.13
2022-12-01T11:32:30.837Z,1.89
2022-12-01T11:35:18.287Z,1.92
2022-12-01T11:38:28.862Z,1.90
2022-12-01T11:41:32.975Z,1.89
2022-12-01T11:44:51.670Z,2.11
2022-12-01T11:47:27.530Z,2.08
2022-12-01T11:50:26.627Z,2.11
2022-12-01T11:53:41.730Z,2.27
2022-12-01T11:56:30.172Z,2.25
2022-12-01T11:59:26.866Z,2.34
2022-12-01T12:02:38.031Z,2.12
2022-12-01T12:06:05.965Z,2.04
2022-12-01T12:09:10.970Z,1.97
2022-12-01T12:12:04.222Z,2.20
2022-12-01T12:14:50.351Z,2.13
2022-12-01T12:18:16.496Z,2.27
2022-12-01T12:21:44.710Z,2.24
2022-12-01T12:25:04.328Z,1.85
2022-12-01T12:28:34.517Z,2.04
2022-12-01T12:31:20.741Z,2.13
2022-12-01T12:34:40.403Z,1.90
2022-12-01T12:37:48.764Z,1.79
2022-12-01T12:41:17.626Z,1.98
2022-12-01T12:44:38.241Z,1.77
2022-12-01T12:47:42.967Z,1.92
2022-12-01T12:50:41.020Z,1.94
2022-12-01T12:53:35.044Z,2.00
2022-12-01T12:56:24.402Z,2.10
2022-12-01T12:59:37.225Z,2.12
2022-12-01T13:02:43.282Z,1.56
2022-12-01T13:05:52.923Z,1.67
2022-12-01T13:09:21.683Z,1.82
2022-12-01T13:12:15.914Z,1.91
2022-12-01T13:15:17.174Z,1.73
2022-12-01T13:18:24.349Z,1.80
2022-12-01T13:21:20.258Z,2.00
2022-12-01T13:24:06.357Z,1.93
2022-12-01T13:27:17.589Z,2.10
2022-12-01T13:30:01.833Z,2.09
2022-12-01T13:32:47.203Z,1.89
2022-12-01T13:35:38.461Z,2.16
2022-12-01T13:38:34.338Z,2.25
2022-12-01T13:41:38.561Z,2.35
2022-12-01T13:44:44.109Z,2.44
2022-12-01T13:47:54.391Z,2.35
2022-12-01T13:50:43.924Z,2.40
2022-12-01T13:53:38.450Z,2.37
2022-12-01T13:56:21.753Z,2.45
2022-12-01T13:59:43.442Z,2.54
2022-12-01T14:02:33.636Z,2.55
2022-12-01T14:05:23.330Z,2.31
2022-12-01T14:08:27.658Z,2.58
2022-12-01T14:11:28.923Z,2.46
2022-12-01T14:14:25.947Z,2.15
2022-12-01T14:17:31.239Z,2.30
2022-12-01T14:20:15.400Z,2.25
2022-12-01T14:23:15.262Z,2.15
2022-12-01T14:26:15.747Z,2.12
2022-12-01T14:29:02.280Z,1.96
2022-12-01T14:31:51.444Z,2.18
2022-12-01T14:34:37.892Z,2.22
2022-12-01T14:37:27.421Z,2.38
2022-12-01T14:40:22.794Z,2.34
2022-12-01T14:43:30.798Z,2.40
2022-12-01T14:46:23.043Z,2.67
2022-12-01T14:49:27.479Z,2.36
2022-12-01T14:52:26.393Z,2.24
2022-12-01T14:55:22.019Z,2.00
2022-12-01T14:58:28.074Z,1.87
2022-12-01T15:01:14.302Z,2.13
2022-12-01T15:04:02.712Z,2.30
2022-12-01T15:06:47.232Z,2.41
2022-12-01T15:09:34.889Z,2.53
2022-12-01T15:12:28.398Z,2.64
2022-12-01T15:15:25.994Z,2.48
2022-12-01T15:18:32.694Z,2.40
2022-12-01T15:21:25.775Z,2.30
2022-12-01T15:24:28.633Z,2.26
2022-12-01T15:27:29.198Z,2.36
2022-12-01T15:30:16.553Z,2.60
2022-12-01T15:33:01.501Z,2.23
2022-12-01T15:35:47.225Z,2.35
2022-12-01T15:38:35.735Z,2.18
2022-12-01T15:41:30.568Z,2.09
2022-12-01T15:44:36.630Z,1.71
2022-12-01T15:47:46.514Z,2.06
2022-12-01T15:50:42.763Z,2.26
2022-12-01T15:53:34.459Z,2.64
2022-12-01T15:56:26.073Z,2.56
2022-12-01T15:59:12.701Z,2.43
2022-12-01T16:01:57.339Z,2.51
2022-12-01T16:04:40.949Z,2.38
2022-12-01T16:08:10.835Z,2.07
2022-12-01T16:10:39.427Z,1.90
2022-12-01T16:13:43.870Z,2.48
2022-12-01T16:16:47.153Z,2.45
2022-12-01T16:19:33.944Z,2.18
2022-12-01T16:22:22.747Z,2.35
2022-12-01T16:25:06.686Z,1.95
2022-12-01T16:27:54.322Z,1.90
2022-12-01T16:30:40.166Z,2.43
2022-12-01T16:33:29.196Z,2.01
2022-12-01T16:36:14.551Z,2.06
2022-12-01T16:38:58.058Z,2.10
2022-12-01T16:41:44.859Z,2.00
2022-12-01T16:44:29.312Z,1.98
2022-12-01T16:47:23.544Z,1.89
2022-12-01T16:50:12.662Z,2.32
2022-12-01T16:52:56.339Z,1.98
2022-12-01T16:55:59.037Z,1.96
2022-12-01T16:58:42.509Z,1.71
2022-12-01T17:01:27.225Z,1.63
2022-12-01T17:04:10.729Z,1.53
2022-12-01T17:06:54.277Z,1.83
2022-12-01T17:09:37.825Z,1.95
2022-12-01T17:12:25.324Z,1.94
2022-12-01T17:15:10.443Z,1.93
2022-12-01T17:17:54.060Z,1.97
2022-12-01T17:20:37.903Z,1.83
2022-12-01T17:23:21.643Z,1.90
2022-12-01T17:26:12.968Z,2.07
2022-12-01T17:28:56.668Z,1.60
2022-12-01T17:31:40.193Z,1.76
2022-12-01T17:34:23.785Z,1.96
2022-12-01T17:37:09.573Z,1.70
2022-12-01T17:39:53.051Z,1.80
2022-12-01T17:42:36.528Z,2.00
2022-12-01T17:45:20.025Z,2.15
2022-12-01T17:48:03.579Z,2.05
2022-12-01T17:50:47.033Z,2.16
2022-12-01T17:53:30.637Z,1.95
2022-12-01T17:56:16.766Z,2.00
2022-12-01T17:59:00.618Z,2.03
2022-12-01T18:01:44.256Z,2.01
2022-12-01T18:04:27.758Z,1.78
2022-12-01T18:07:11.251Z,1.85
2022-12-01T18:09:55.149Z,2.22
2022-12-01T18:12:38.735Z,2.13
2022-12-01T18:15:22.243Z,2.10
2022-12-01T18:18:05.698Z,2.06
2022-12-01T18:20:49.166Z,2.17
2022-12-01T18:23:32.728Z,2.19
2022-12-01T18:26:16.558Z,2.02
2022-12-01T18:29:06.378Z,1.95
2022-12-01T18:31:49.891Z,2.19
2022-12-01T18:34:34.030Z,2.15
2022-12-01T18:37:17.533Z,2.03
2022-12-01T18:40:00.964Z,2.37
2022-12-01T18:42:44.745Z,2.53
2022-12-01T18:45:28.141Z,2.06
2022-12-01T18:48:11.563Z,2.25
2022-12-01T18:50:59.286Z,2.12
2022-12-01T18:53:45.474Z,1.81
2022-12-01T18:56:30.062Z,2.17
2022-12-01T18:59:16.910Z,2.25
2022-12-01T19:02:01.123Z,1.98
2022-12-01T19:04:44.633Z,2.09
2022-12-01T19:07:30.099Z,1.81
2022-12-01T19:10:15.252Z,1.77
2022-12-01T19:12:58.695Z,1.88
2022-12-01T19:15:42.312Z,2.12
2022-12-01T19:18:25.763Z,2.04
2022-12-01T19:21:13.504Z,2.31
2022-12-01T19:23:57.025Z,2.22
2022-12-01T19:26:40.561Z,2.02
2022-12-01T19:29:24.201Z,2.51
2022-12-01T19:32:07.688Z,2.27
2022-12-01T19:34:52.350Z,2.30
2022-12-01T19:37:36.037Z,2.28
2022-12-01T19:40:19.486Z,2.41
2022-12-01T19:43:03.315Z,2.45
2022-12-01T19:45:46.823Z,2.36
2022-12-01T19:48:30.278Z,2.37
2022-12-01T19:51:37.007Z,2.28
2022-12-01T19:54:22.062Z,2.16
2022-12-01T19:57:06.369Z,2.68
2022-12-01T19:59:49.903Z,2.17
2022-12-01T20:02:33.390Z,2.29
2022-12-01T20:05:17.248Z,2.54
2022-12-01T20:08:02.790Z,2.54
2022-12-01T20:10:49.292Z,2.57
2022-12-01T20:13:39.107Z,2.72
2022-12-01T20:16:26.204Z,2.09
2022-12-01T20:19:10.970Z,2.08
2022-12-01T20:21:54.437Z,1.86
2022-12-01T20:24:41.180Z,2.02
2022-12-01T20:27:24.741Z,2.15
2022-12-01T20:30:09.406Z,2.12
2022-12-01T20:32:54.288Z,2.53
2022-12-01T20:35:37.753Z,2.66
2022-12-01T20:38:27.045Z,2.50
2022-12-01T20:41:12.074Z,1.93
2022-12-01T20:43:55.769Z,1.76
2022-12-01T20:46:41.146Z,2.09
2022-12-01T20:49:24.678Z,2.11
2022-12-01T20:52:08.433Z,2.39
2022-12-01T20:54:52.192Z,2.63
2022-12-01T20:57:35.951Z,2.57
2022-12-01T21:00:19.769Z,2.54
2022-12-01T21:03:03.430Z,2.65
2022-12-01T21:05:46.945Z,2.52
2022-12-01T21:08:30.415Z,2.39
2022-12-01T21:11:51.402Z,2.66
2022-12-01T21:14:43.267Z,2.59
2022-12-01T21:18:24.166Z,2.31
2022-12-01T21:21:25.533Z,2.12
2022-12-01T21:24:16.271Z,2.14
2022-12-01T21:27:08.586Z,2.63
2022-12-01T21:29:51.994Z,2.74
2022-12-01T21:32:41.151Z,2.33
2022-12-01T21:35:27.160Z,2.25
2022-12-01T21:38:17.741Z,2.29
2022-12-01T21:41:17.317Z,2.27
2022-12-01T21:44:12.871Z,2.10
2022-12-01T21:46:59.278Z,2.01
2022-12-01T21:49:45.150Z,2.30
2022-12-01T21:52:39.187Z,2.29
2022-12-01T21:55:22.481Z,2.17
2022-12-01T21:58:30.687Z,2.75
2022-12-01T22:01:34.965Z,2.53
2022-12-01T22:04:29.519Z,2.32
2022-12-01T22:07:15.495Z,2.73
2022-12-01T22:09:59.259Z,2.47
2022-12-01T22:12:43.045Z,2.60
2022-12-01T22:15:41.449Z,2.51
2022-12-01T22:18:36.506Z,2.03
2022-12-01T22:21:22.897Z,2.29
2022-12-01T22:24:09.158Z,2.24
2022-12-01T22:27:28.043Z,2.21
2022-12-01T22:30:18.340Z,2.08
2022-12-01T22:33:06.057Z,2.04
2022-12-01T22:35:52.698Z,1.74
2022-12-01T22:38:39.715Z,1.96
2022-12-01T22:41:23.591Z,2.17
2022-12-01T22:44:12.437Z,1.66
2022-12-01T22:47:02.101Z,2.12
2022-12-01T22:49:45.580Z,2.06
2022-12-01T22:52:30.442Z,2.21
2022-12-01T22:55:15.560Z,2.04
2022-12-01T22:57:59.816Z,1.99
2022-12-01T23:00:43.790Z,2.36
2022-12-01T23:03:27.915Z,1.58
2022-12-01T23:06:58.862Z,1.65
2022-12-01T23:09:44.490Z,2.35
2022-12-01T23:12:32.391Z,2.05
2022-12-01T23:15:37.519Z,1.94
2022-12-01T23:18:39.321Z,2.12
2022-12-01T23:21:23.065Z,2.41
2022-12-01T23:24:08.650Z,2.10
2022-12-01T23:26:52.530Z,2.16
2022-12-01T23:29:37.352Z,2.11
2022-12-01T23:32:20.859Z,2.07
2022-12-01T23:35:22.759Z,2.26
2022-12-01T23:38:15.086Z,2.25
2022-12-01T23:41:04.342Z,2.75
2022-12-01T23:43:47.759Z,2.15
2022-12-01T23:46:32.906Z,2.11
2022-12-01T23:49:25.327Z,2.16
2022-12-01T23:52:16.583Z,2.22
2022-12-01T23:55:01.219Z,1.96
2022-12-01T23:57:44.672Z,1.78
